Terminal Aerodrome Forecast
Issued by NWS

Home | Current Version | Previous Version | Text Only | Print | Product List | Glossary Off
Versions: 1 2 3 4 5 6 7 8 9 10 11 12 13 14 15 16 17 18 19 20 21 22

000
FTUS43 KBIS 281200 AAA
TAFMOT
TAF AMD
KMOT 281240Z 2813/2912 18008KT P6SM SCT005
     FM281500 20009KT P6SM SCT060
     FM290400 20006KT P6SM BKN080
     FM291000 31012KT P6SM SCT010 BKN080=

USA.gov is the U.S. government's official web portal to all federal, state and local government web resources and services.